createdAt,value
2018-07-14T00:00:02.048Z,57.30
2018-07-14T00:00:35.096Z,57.90
2018-07-14T00:01:08.452Z,58.50
2018-07-14T00:01:44.858Z,59.30
2018-07-14T00:02:17.941Z,60.30
2018-07-14T00:02:51.049Z,61.80
2018-07-14T00:03:25.575Z,62.10
2018-07-14T00:03:58.634Z,63.40
2018-07-14T00:04:31.665Z,63.60
2018-07-14T00:05:05.169Z,63.70
2018-07-14T00:05:38.267Z,63.40
2018-07-14T00:06:11.315Z,64.10
2018-07-14T00:06:44.365Z,64.70
2018-07-14T00:07:17.389Z,65.40
2018-07-14T00:07:50.411Z,65.20
2018-07-14T00:08:23.488Z,65.20
2018-07-14T00:08:56.559Z,64.10
2018-07-14T00:09:29.607Z,63.40
2018-07-14T00:10:02.869Z,62.20
2018-07-14T00:10:35.887Z,61.50
2018-07-14T00:11:08.991Z,60.90
2018-07-14T00:11:42.069Z,61.10
2018-07-14T00:12:15.109Z,61.10
2018-07-14T00:12:48.145Z,60.70
2018-07-14T00:13:21.224Z,60.10
2018-07-14T00:13:54.307Z,59.90
2018-07-14T00:14:27.384Z,59.40
2018-07-14T00:15:00.459Z,59.70
2018-07-14T00:15:33.517Z,59.30
2018-07-14T00:16:06.727Z,58.80
2018-07-14T00:16:39.764Z,58.80
2018-07-14T00:17:12.865Z,58.50
2018-07-14T00:17:45.903Z,58.90
2018-07-14T00:18:18.915Z,58.50
2018-07-14T00:18:51.955Z,58.00
2018-07-14T00:19:25.001Z,58.20
2018-07-14T00:19:58.063Z,58.20
2018-07-14T00:20:31.161Z,59.00
2018-07-14T00:21:04.221Z,59.20
2018-07-14T00:21:37.279Z,59.00
2018-07-14T00:22:10.304Z,59.00
2018-07-14T00:22:43.393Z,59.50
2018-07-14T00:23:16.455Z,59.90
2018-07-14T00:23:49.483Z,60.60
2018-07-14T00:24:22.582Z,61.30
2018-07-14T00:24:55.545Z,61.60
2018-07-14T00:25:34.395Z,61.50
2018-07-14T00:26:07.424Z,61.30
2018-07-14T00:26:40.469Z,60.90
2018-07-14T00:27:13.505Z,60.80
2018-07-14T00:27:46.540Z,60.60
2018-07-14T00:28:19.697Z,60.30
2018-07-14T00:28:52.717Z,60.20
2018-07-14T00:29:25.763Z,60.20
2018-07-14T00:29:58.797Z,60.20
2018-07-14T00:30:31.843Z,59.90
2018-07-14T00:31:04.895Z,59.50
2018-07-14T00:31:38.176Z,59.80
2018-07-14T00:32:11.529Z,59.60
2018-07-14T00:32:44.560Z,59.80
2018-07-14T00:33:17.641Z,60.20
2018-07-14T00:33:50.672Z,60.70
2018-07-14T00:34:23.703Z,61.10
2018-07-14T00:34:56.735Z,61.20
2018-07-14T00:35:29.767Z,61.10
2018-07-14T00:36:02.785Z,61.80
2018-07-14T00:36:35.819Z,62.10
2018-07-14T00:37:08.850Z,62.40
2018-07-14T00:37:41.864Z,62.70
2018-07-14T00:38:14.895Z,61.90
2018-07-14T00:38:47.944Z,61.70
2018-07-14T00:39:20.981Z,61.60
2018-07-14T00:39:54.192Z,61.10
2018-07-14T00:40:27.305Z,60.90
2018-07-14T00:41:00.345Z,60.30
2018-07-14T00:41:33.439Z,59.70
2018-07-14T00:42:06.537Z,59.10
2018-07-14T00:42:39.553Z,58.30
2018-07-14T00:43:12.625Z,57.60
2018-07-14T00:43:45.663Z,58.40
2018-07-14T00:44:18.741Z,59.30
2018-07-14T00:44:51.823Z,61.30
2018-07-14T00:45:24.885Z,62.90
2018-07-14T00:45:57.928Z,64.00
2018-07-14T00:46:30.959Z,65.50
2018-07-14T00:47:04.303Z,67.10
2018-07-14T00:47:37.327Z,67.70
2018-07-14T00:48:10.395Z,68.60
2018-07-14T00:48:43.471Z,68.60
2018-07-14T00:49:16.541Z,69.10
2018-07-14T00:49:49.549Z,69.10
2018-07-14T00:50:22.591Z,68.60
2018-07-14T00:50:55.613Z,69.20
2018-07-14T00:51:28.673Z,68.50
2018-07-14T00:52:01.742Z,67.70
2018-07-14T00:52:34.749Z,67.10
2018-07-14T00:53:07.883Z,66.30
2018-07-14T00:53:41.026Z,65.40
2018-07-14T00:54:14.038Z,64.50
2018-07-14T00:54:47.049Z,63.90
2018-07-14T00:55:20.064Z,63.40
2018-07-14T00:55:53.141Z,63.50
2018-07-14T00:56:26.212Z,64.40
2018-07-14T00:56:59.284Z,66.30
2018-07-14T00:57:32.333Z,67.00
2018-07-14T00:58:05.414Z,68.20
2018-07-14T00:58:38.663Z,71.50
2018-07-14T00:59:11.736Z,73.50
2018-07-14T00:59:44.757Z,74.60
2018-07-14T01:00:17.871Z,75.00
2018-07-14T01:00:50.902Z,75.50
2018-07-14T01:01:23.915Z,76.30
2018-07-14T01:01:56.946Z,77.30
2018-07-14T01:02:30.007Z,77.90
2018-07-14T01:03:03.084Z,77.90
2018-07-14T01:03:36.124Z,77.90
2018-07-14T01:04:09.156Z,78.10
2018-07-14T01:04:42.214Z,78.60
2018-07-14T01:05:15.254Z,79.40
2018-07-14T01:05:48.280Z,79.80
2018-07-14T01:06:21.435Z,80.10
2018-07-14T01:06:54.501Z,80.00
2018-07-14T01:07:27.608Z,79.70
2018-07-14T01:08:00.629Z,79.60
2018-07-14T01:08:33.696Z,78.80
2018-07-14T01:09:07.176Z,78.70
2018-07-14T01:09:40.223Z,79.10
2018-07-14T01:10:13.257Z,78.90
2018-07-14T01:10:46.321Z,79.60
2018-07-14T01:11:19.402Z,80.10
2018-07-14T01:11:52.436Z,80.00
2018-07-14T01:12:25.499Z,80.40
2018-07-14T01:12:58.511Z,79.50
2018-07-14T01:13:31.536Z,79.20
2018-07-14T01:14:04.602Z,78.50
2018-07-14T01:14:37.640Z,78.90
2018-07-14T01:15:10.674Z,78.30
2018-07-14T01:15:43.748Z,77.60
2018-07-14T01:16:16.866Z,78.10
2018-07-14T01:16:49.912Z,78.90
2018-07-14T01:17:22.938Z,79.40
2018-07-14T01:17:55.984Z,80.20
2018-07-14T01:18:28.994Z,81.10
2018-07-14T01:19:02.014Z,81.10
2018-07-14T01:19:35.059Z,82.20
2018-07-14T01:20:08.096Z,82.30
2018-07-14T01:20:41.140Z,83.00
2018-07-14T01:21:14.172Z,83.60
2018-07-14T01:21:47.225Z,84.00
2018-07-14T01:22:20.384Z,83.90
2018-07-14T01:22:53.699Z,83.80
2018-07-14T01:23:26.790Z,83.50
2018-07-14T01:23:59.915Z,82.90
2018-07-14T01:24:32.909Z,82.80
2018-07-14T01:25:06.289Z,82.10
2018-07-14T01:25:39.316Z,82.90
2018-07-14T01:26:12.346Z,83.60
2018-07-14T01:26:45.391Z,84.10
2018-07-14T01:27:18.402Z,84.40
2018-07-14T01:27:51.391Z,84.40
2018-07-14T01:28:24.390Z,84.90
2018-07-14T01:28:57.400Z,85.50
2018-07-14T01:29:30.415Z,85.40
2018-07-14T01:30:03.508Z,86.30
2018-07-14T01:30:36.538Z,86.70
2018-07-14T01:31:09.613Z,86.80
2018-07-14T01:31:42.747Z,87.30
2018-07-14T01:32:15.927Z,87.40
2018-07-14T01:32:48.949Z,87.80
2018-07-14T01:33:21.995Z,88.40
2018-07-14T01:33:54.989Z,89.00
2018-07-14T01:34:28.006Z,89.90
2018-07-14T01:35:01.025Z,90.40
2018-07-14T01:35:34.029Z,91.20
2018-07-14T01:36:07.073Z,91.50
2018-07-14T01:36:40.190Z,91.70
2018-07-14T01:37:13.179Z,91.40
2018-07-14T01:37:46.162Z,91.10
2018-07-14T01:38:19.196Z,90.70
2018-07-14T01:38:52.193Z,91.00
2018-07-14T01:39:25.202Z,91.90
2018-07-14T01:39:58.239Z,92.20
2018-07-14T01:40:31.360Z,92.20
2018-07-14T01:41:04.352Z,92.10
2018-07-14T01:41:37.637Z,91.80
2018-07-14T01:42:10.706Z,91.50
2018-07-14T01:42:43.733Z,91.50
2018-07-14T01:43:16.749Z,92.20
2018-07-14T01:43:49.807Z,92.70
2018-07-14T01:44:22.823Z,92.40
2018-07-14T01:44:55.878Z,92.10
2018-07-14T01:45:28.893Z,91.90
2018-07-14T01:46:01.956Z,91.60
2018-07-14T01:46:35.000Z,91.60
2018-07-14T01:47:07.996Z,91.20
2018-07-14T01:47:41.053Z,90.20
2018-07-14T01:48:14.126Z,89.10
2018-07-14T01:48:47.139Z,87.80
2018-07-14T01:49:20.132Z,86.70
2018-07-14T01:49:53.130Z,85.80
2018-07-14T01:50:26.175Z,85.30
2018-07-14T01:50:59.210Z,84.80
2018-07-14T01:51:32.326Z,84.50
2018-07-14T01:52:05.393Z,84.50
2018-07-14T01:52:38.403Z,84.40
2018-07-14T01:53:11.423Z,84.50
2018-07-14T01:53:44.447Z,84.70
2018-07-14T01:54:17.690Z,84.90
2018-07-14T01:54:50.692Z,85.10
2018-07-14T01:55:23.822Z,85.20
2018-07-14T01:55:56.864Z,85.40
2018-07-14T01:56:29.887Z,85.50
2018-07-14T01:57:02.910Z,85.70
2018-07-14T01:57:35.955Z,85.90
2018-07-14T01:58:08.975Z,86.10
2018-07-14T01:58:42.040Z,86.50
2018-07-14T01:59:15.145Z,87.00
2018-07-14T01:59:48.155Z,87.40
2018-07-14T02:00:21.215Z,87.80
2018-07-14T02:00:54.295Z,88.10
2018-07-14T02:01:27.339Z,88.80
2018-07-14T02:02:05.377Z,89.40
2018-07-14T02:02:38.440Z,89.70
2018-07-14T02:03:11.449Z,89.60
2018-07-14T02:03:44.568Z,89.60
2018-07-14T02:04:17.553Z,89.30
2018-07-14T02:04:50.603Z,89.40
2018-07-14T02:05:23.619Z,89.50
2018-07-14T02:05:56.636Z,89.60
2018-07-14T02:06:29.694Z,89.90
2018-07-14T02:07:02.755Z,90.20
2018-07-14T02:07:35.909Z,90.50
2018-07-14T02:08:08.951Z,91.00
2018-07-14T02:08:42.813Z,91.30
2018-07-14T02:09:15.815Z,91.70
2018-07-14T02:09:48.846Z,92.10
2018-07-14T02:10:21.879Z,92.40
2018-07-14T02:10:54.936Z,92.80
2018-07-14T02:11:27.965Z,93.20
2018-07-14T02:12:01.018Z,93.60
2018-07-14T02:12:34.071Z,94.30
2018-07-14T02:13:07.172Z,94.90
2018-07-14T02:13:40.232Z,95.30
2018-07-14T02:14:13.340Z,95.80
2018-07-14T02:14:46.373Z,96.40
2018-07-14T02:15:19.397Z,96.80
2018-07-14T02:15:52.449Z,96.90
2018-07-14T02:16:25.480Z,97.30
2018-07-14T02:16:58.712Z,97.50
2018-07-14T02:17:31.725Z,97.90
2018-07-14T02:18:04.775Z,98.20
2018-07-14T02:18:37.803Z,98.60
2018-07-14T02:19:10.847Z,98.80
2018-07-14T02:19:43.877Z,99.00
2018-07-14T02:20:16.963Z,99.10
2018-07-14T02:20:50.013Z,99.70
2018-07-14T02:21:23.107Z,99.90
2018-07-14T02:21:56.123Z,99.90
2018-07-14T02:22:29.139Z,99.90
2018-07-14T02:23:02.165Z,99.90
2018-07-14T02:23:35.207Z,99.90
2018-07-14T02:24:08.243Z,99.90
2018-07-14T02:24:41.249Z,99.90
2018-07-14T02:25:14.270Z,99.90
2018-07-14T02:25:47.570Z,99.20
2018-07-14T02:26:20.607Z,98.50
2018-07-14T02:26:53.638Z,97.90
2018-07-14T02:27:26.652Z,97.40
2018-07-14T02:27:59.702Z,97.00
2018-07-14T02:28:32.735Z,96.30
2018-07-14T02:29:05.787Z,95.70
2018-07-14T02:29:38.839Z,95.20
2018-07-14T02:30:11.890Z,94.50
2018-07-14T02:30:44.926Z,93.90
2018-07-14T02:31:17.949Z,93.20
2018-07-14T02:31:51.013Z,92.70
2018-07-14T02:32:24.078Z,92.20
2018-07-14T02:32:57.199Z,91.90
2018-07-14T02:33:30.253Z,91.50
2018-07-14T02:34:03.294Z,91.10
2018-07-14T02:34:36.319Z,90.80
2018-07-14T02:35:09.397Z,90.60
2018-07-14T02:35:42.435Z,90.60
2018-07-14T02:36:15.458Z,90.60
2018-07-14T02:36:48.481Z,90.60
2018-07-14T02:37:21.547Z,90.80
2018-07-14T02:37:54.611Z,91.00
2018-07-14T02:38:27.704Z,90.70
2018-07-14T02:39:00.802Z,91.00
2018-07-14T02:39:33.851Z,91.00
2018-07-14T02:40:06.890Z,91.20
2018-07-14T02:40:39.908Z,91.50
2018-07-14T02:41:12.979Z,91.60
2018-07-14T02:41:46.029Z,91.30
2018-07-14T02:42:19.115Z,90.30
2018-07-14T02:42:52.132Z,89.10
2018-07-14T02:43:25.175Z,87.60
2018-07-14T02:43:58.209Z,87.20
2018-07-14T02:44:31.336Z,87.30
2018-07-14T02:45:05.444Z,87.50
2018-07-14T02:45:38.492Z,86.70
2018-07-14T02:46:11.559Z,86.00
2018-07-14T02:46:44.615Z,85.40
2018-07-14T02:47:17.640Z,84.90
2018-07-14T02:47:50.666Z,84.30
2018-07-14T02:48:23.723Z,83.70
2018-07-14T02:48:56.757Z,82.90
2018-07-14T02:49:29.764Z,82.60
2018-07-14T02:50:02.892Z,82.20
2018-07-14T02:50:35.911Z,81.50
2018-07-14T02:51:08.941Z,81.00
2018-07-14T02:51:42.010Z,80.50
2018-07-14T02:52:15.028Z,79.90
2018-07-14T02:52:48.062Z,79.50
2018-07-14T02:53:21.164Z,79.00
2018-07-14T02:53:54.209Z,78.70
2018-07-14T02:54:27.272Z,78.40
2018-07-14T02:55:00.324Z,78.20
2018-07-14T02:55:33.375Z,78.00
2018-07-14T02:56:06.382Z,77.80
2018-07-14T02:56:39.385Z,77.60
2018-07-14T02:57:12.368Z,77.60
2018-07-14T02:57:45.410Z,77.30
2018-07-14T02:58:18.452Z,77.20
2018-07-14T02:58:51.523Z,76.80
2018-07-14T02:59:24.523Z,76.60
2018-07-14T02:59:57.520Z,76.30
2018-07-14T03:00:30.565Z,76.00
2018-07-14T03:01:03.880Z,75.80
2018-07-14T03:01:36.970Z,75.60
2018-07-14T03:02:10.118Z,75.60
2018-07-14T03:02:43.140Z,75.70
2018-07-14T03:03:16.212Z,75.90
2018-07-14T03:03:49.286Z,76.00
2018-07-14T03:04:22.344Z,76.20
2018-07-14T03:04:55.350Z,76.50
2018-07-14T03:05:28.391Z,76.80
2018-07-14T03:06:01.434Z,77.20
2018-07-14T03:06:34.443Z,77.60
2018-07-14T03:07:07.486Z,77.90
2018-07-14T03:07:40.480Z,78.60
2018-07-14T03:08:13.520Z,79.50
2018-07-14T03:08:46.548Z,80.10
2018-07-14T03:09:19.588Z,82.10
2018-07-14T03:09:52.634Z,84.40
2018-07-14T03:10:25.690Z,86.40
2018-07-14T03:10:58.739Z,87.70
2018-07-14T03:11:31.804Z,90.00
2018-07-14T03:12:05.177Z,90.30
2018-07-14T03:12:38.180Z,90.60
2018-07-14T03:13:11.192Z,90.50
2018-07-14T03:13:44.386Z,89.80
2018-07-14T03:14:17.463Z,89.20
2018-07-14T03:14:50.483Z,88.90
2018-07-14T03:15:23.545Z,88.50
2018-07-14T03:15:56.607Z,88.10
2018-07-14T03:16:29.794Z,87.90
2018-07-14T03:17:02.881Z,87.80
2018-07-14T03:17:35.928Z,87.60
2018-07-14T03:18:09.064Z,87.60
2018-07-14T03:18:42.114Z,87.60
2018-07-14T03:19:15.182Z,87.70
2018-07-14T03:19:48.202Z,88.00
2018-07-14T03:20:21.296Z,88.20
2018-07-14T03:20:54.382Z,88.50
2018-07-14T03:21:27.424Z,88.60
2018-07-14T03:22:00.438Z,88.80
2018-07-14T03:22:33.458Z,89.00
2018-07-14T03:23:06.520Z,89.30
2018-07-14T03:23:39.548Z,89.50
2018-07-14T03:24:12.560Z,89.70
2018-07-14T03:24:45.608Z,90.00
2018-07-14T03:25:18.630Z,90.30
2018-07-14T03:25:51.672Z,90.30
2018-07-14T03:26:24.737Z,90.30
2018-07-14T03:26:57.742Z,90.60
2018-07-14T03:27:30.766Z,91.50
2018-07-14T03:28:04.563Z,96.80
2018-07-14T03:28:37.609Z,99.70
2018-07-14T03:29:11.289Z,99.90
2018-07-14T03:29:44.281Z,99.90
2018-07-14T03:30:17.302Z,99.90
2018-07-14T03:30:50.325Z,99.90
2018-07-14T03:31:23.362Z,99.90
2018-07-14T03:31:56.431Z,99.90
2018-07-14T03:32:29.426Z,99.90
2018-07-14T03:33:02.495Z,99.90
2018-07-14T03:33:35.498Z,99.90
2018-07-14T03:34:08.542Z,99.90
2018-07-14T03:34:41.562Z,99.90
2018-07-14T03:35:14.529Z,99.90
2018-07-14T03:35:47.542Z,99.90
2018-07-14T03:36:20.579Z,99.90
2018-07-14T03:36:53.629Z,99.90
2018-07-14T03:37:26.660Z,99.90
2018-07-14T03:37:59.638Z,99.90
2018-07-14T03:38:32.652Z,99.90
2018-07-14T03:39:05.899Z,99.90
2018-07-14T03:39:38.931Z,99.90
2018-07-14T03:40:11.950Z,99.90
2018-07-14T03:40:48.006Z,99.90
2018-07-14T03:41:21.020Z,99.90
2018-07-14T03:41:54.045Z,99.90
2018-07-14T03:42:27.044Z,99.90
2018-07-14T03:43:00.038Z,99.90
2018-07-14T03:43:33.101Z,99.90
2018-07-14T03:44:06.095Z,99.90
2018-07-14T03:44:39.111Z,99.90
2018-07-14T03:45:12.143Z,99.90
2018-07-14T03:45:45.212Z,99.90
2018-07-14T03:46:18.228Z,99.90
2018-07-14T03:46:51.218Z,99.90
2018-07-14T03:47:24.250Z,99.90
2018-07-14T03:47:57.311Z,99.90
2018-07-14T03:48:30.332Z,99.90
2018-07-14T03:49:03.360Z,99.90
2018-07-14T03:49:36.346Z,99.90
2018-07-14T03:50:09.412Z,99.90
2018-07-14T03:50:42.411Z,99.90
2018-07-14T03:51:15.504Z,99.90
2018-07-14T03:51:48.515Z,99.90
2018-07-14T03:52:21.579Z,99.90
2018-07-14T03:52:54.605Z,99.90
2018-07-14T03:53:27.631Z,99.90
2018-07-14T03:54:00.694Z,99.90
2018-07-14T03:54:33.697Z,99.90
2018-07-14T03:55:07.297Z,99.90
2018-07-14T03:55:40.322Z,99.90
2018-07-14T03:56:13.332Z,99.90
2018-07-14T03:56:46.361Z,99.90
2018-07-14T03:57:19.387Z,99.90
2018-07-14T03:57:52.418Z,99.90
2018-07-14T03:58:25.438Z,99.90
2018-07-14T03:58:58.495Z,99.90
2018-07-14T03:59:31.572Z,99.90
2018-07-14T04:00:05.394Z,99.90
2018-07-14T04:00:38.395Z,99.90
2018-07-14T04:01:11.403Z,99.90
2018-07-14T04:01:44.467Z,99.90
2018-07-14T04:02:17.461Z,99.90
2018-07-14T04:02:50.457Z,99.90
2018-07-14T04:03:23.527Z,99.90
2018-07-14T04:03:56.522Z,99.90
2018-07-14T04:04:29.574Z,99.90
2018-07-14T04:05:02.650Z,99.90
2018-07-14T04:05:35.646Z,99.90
2018-07-14T04:06:08.817Z,99.90
2018-07-14T04:06:41.862Z,99.90
2018-07-14T04:07:14.862Z,99.90
2018-07-14T04:07:48.017Z,99.90
2018-07-14T04:08:21.040Z,99.90
2018-07-14T04:08:54.057Z,99.90
2018-07-14T04:09:27.064Z,99.90
2018-07-14T04:10:00.208Z,99.90
2018-07-14T04:10:33.236Z,99.90
2018-07-14T04:11:06.273Z,99.90
2018-07-14T04:11:39.292Z,99.90
2018-07-14T04:12:12.352Z,99.90
2018-07-14T04:12:45.392Z,99.90
2018-07-14T04:13:18.419Z,99.90
2018-07-14T04:13:51.470Z,99.90
2018-07-14T04:14:24.486Z,99.90
2018-07-14T04:14:57.474Z,99.90
2018-07-14T04:15:30.507Z,99.90
2018-07-14T04:16:03.722Z,99.90
2018-07-14T04:16:36.729Z,99.90
2018-07-14T04:17:09.742Z,99.90
2018-07-14T04:17:42.832Z,99.90
2018-07-14T04:18:15.848Z,99.90
2018-07-14T04:18:48.851Z,99.90
2018-07-14T04:19:21.885Z,99.90
2018-07-14T04:19:54.922Z,99.90
2018-07-14T04:20:27.932Z,99.90
2018-07-14T04:21:00.973Z,99.90
2018-07-14T04:21:33.971Z,99.90
2018-07-14T04:22:07.029Z,99.90
2018-07-14T04:22:40.076Z,99.90
2018-07-14T04:23:13.069Z,99.90
2018-07-14T04:23:46.060Z,99.90
2018-07-14T04:24:19.159Z,99.90
2018-07-14T04:24:52.168Z,99.90
2018-07-14T04:25:25.202Z,99.90
2018-07-14T04:25:58.213Z,99.90
2018-07-14T04:26:31.206Z,99.90
2018-07-14T04:27:04.241Z,99.90
2018-07-14T04:27:37.271Z,99.90
2018-07-14T04:28:10.295Z,99.90
2018-07-14T04:28:43.323Z,99.90
2018-07-14T04:29:16.337Z,99.90
2018-07-14T04:29:49.326Z,99.90
2018-07-14T04:30:22.340Z,99.90
2018-07-14T04:30:55.404Z,99.90
2018-07-14T04:31:28.452Z,99.90
2018-07-14T04:32:01.460Z,99.90
2018-07-14T04:32:34.447Z,99.90
2018-07-14T04:33:07.542Z,99.90
2018-07-14T04:33:40.607Z,99.90
2018-07-14T04:34:13.623Z,99.90
2018-07-14T04:34:46.902Z,99.90
2018-07-14T04:35:19.955Z,99.90
2018-07-14T04:35:52.972Z,99.90
2018-07-14T04:36:25.996Z,99.90
2018-07-14T04:36:59.049Z,99.90
2018-07-14T04:37:32.051Z,99.90
2018-07-14T04:38:05.208Z,99.90
2018-07-14T04:38:38.221Z,99.90
2018-07-14T04:39:11.271Z,99.90
2018-07-14T04:39:44.318Z,99.90
2018-07-14T04:40:17.322Z,99.50
2018-07-14T04:40:50.431Z,99.20
2018-07-14T04:41:23.484Z,98.80
2018-07-14T04:41:56.586Z,98.60
2018-07-14T04:42:29.611Z,98.50
2018-07-14T04:43:02.664Z,98.20
2018-07-14T04:43:35.670Z,97.90
2018-07-14T04:44:08.698Z,97.70
2018-07-14T04:44:41.686Z,97.60
2018-07-14T04:45:14.695Z,97.40
2018-07-14T04:45:47.716Z,97.20
2018-07-14T04:46:20.732Z,96.90
2018-07-14T04:46:53.815Z,96.40
2018-07-14T04:47:26.808Z,95.90
2018-07-14T04:47:59.841Z,95.50
2018-07-14T04:48:32.895Z,94.90
2018-07-14T04:49:05.941Z,94.30
2018-07-14T04:49:39.012Z,93.70
2018-07-14T04:50:12.038Z,93.20
2018-07-14T04:50:45.072Z,92.60
2018-07-14T04:51:18.129Z,91.90
2018-07-14T04:51:51.219Z,91.30
2018-07-14T04:52:25.279Z,90.60
2018-07-14T04:52:58.329Z,89.80
2018-07-14T04:53:31.362Z,89.00
2018-07-14T04:54:04.431Z,88.60
2018-07-14T04:54:37.435Z,88.00
2018-07-14T04:55:10.475Z,87.40
2018-07-14T04:55:43.518Z,86.90
2018-07-14T04:56:16.548Z,86.30
2018-07-14T04:56:49.561Z,85.60
2018-07-14T04:57:22.611Z,85.00
2018-07-14T04:57:55.641Z,84.20
2018-07-14T04:58:28.673Z,83.80
2018-07-14T04:59:01.682Z,83.30
2018-07-14T04:59:34.727Z,82.90
2018-07-14T05:00:07.808Z,82.50
2018-07-14T05:00:40.869Z,82.10
2018-07-14T05:01:13.929Z,81.70
2018-07-14T05:01:46.955Z,81.20
2018-07-14T05:02:19.944Z,80.70
2018-07-14T05:02:53.013Z,78.20
2018-07-14T05:03:26.085Z,72.40
2018-07-14T05:03:59.129Z,71.80
2018-07-14T05:04:32.131Z,70.20
2018-07-14T05:05:05.468Z,70.00
2018-07-14T05:05:38.471Z,69.90
2018-07-14T05:06:11.603Z,69.40
2018-07-14T05:06:44.629Z,68.20
2018-07-14T05:07:17.657Z,67.50
2018-07-14T05:07:50.854Z,66.10
2018-07-14T05:08:23.917Z,64.30
2018-07-14T05:08:56.940Z,62.90
2018-07-14T05:09:29.945Z,62.50
2018-07-14T05:10:03.035Z,61.50
2018-07-14T05:10:36.081Z,61.20
2018-07-14T05:11:09.081Z,60.70
2018-07-14T05:11:42.115Z,57.80
2018-07-14T05:12:15.115Z,55.60
2018-07-14T05:12:48.145Z,55.90
2018-07-14T05:13:21.197Z,55.50
2018-07-14T05:13:54.225Z,54.10
2018-07-14T05:14:27.273Z,54.00
2018-07-14T05:15:00.329Z,51.30
2018-07-14T05:15:33.327Z,51.30
2018-07-14T05:16:06.433Z,50.20
2018-07-14T05:16:39.469Z,50.20
2018-07-14T05:17:12.475Z,48.90
2018-07-14T05:17:45.527Z,48.70
2018-07-14T05:18:18.577Z,48.70
2018-07-14T05:18:51.619Z,48.20
2018-07-14T05:19:24.646Z,45.70
2018-07-14T05:19:57.639Z,44.60
2018-07-14T05:20:30.699Z,44.40
2018-07-14T05:21:03.787Z,44.10
2018-07-14T05:21:36.800Z,44.20
2018-07-14T05:22:09.839Z,44.40
2018-07-14T05:22:42.949Z,44.30
2018-07-14T05:23:15.979Z,40.70
2018-07-14T05:23:49.005Z,37.50
2018-07-14T05:24:22.044Z,37.00
2018-07-14T05:24:55.060Z,38.40
2018-07-14T05:25:28.083Z,38.50
2018-07-14T05:26:01.131Z,41.00
2018-07-14T05:26:34.171Z,42.00
2018-07-14T05:27:07.230Z,41.30
2018-07-14T05:27:40.223Z,39.60
2018-07-14T05:28:13.247Z,38.60
2018-07-14T05:28:46.272Z,38.50
2018-07-14T05:29:19.312Z,38.30
2018-07-14T05:29:52.339Z,36.70
2018-07-14T05:30:25.505Z,35.80
2018-07-14T05:30:58.587Z,34.60
2018-07-14T05:31:31.647Z,35.10
2018-07-14T05:32:04.936Z,34.70
2018-07-14T05:32:37.955Z,34.70
2018-07-14T05:33:11.069Z,33.80
2018-07-14T05:33:44.069Z,34.20
2018-07-14T05:34:17.054Z,32.10
2018-07-14T05:34:50.115Z,29.90
2018-07-14T05:35:23.171Z,31.00
2018-07-14T05:35:56.255Z,30.70
2018-07-14T05:36:29.337Z,28.30
2018-07-14T05:37:02.433Z,28.70
2018-07-14T05:37:35.441Z,28.00
2018-07-14T05:38:08.460Z,27.80
2018-07-14T05:38:41.472Z,28.20
2018-07-14T05:39:14.519Z,28.10
2018-07-14T05:39:47.531Z,27.40
2018-07-14T05:40:20.587Z,24.70
2018-07-14T05:40:53.658Z,22.70
2018-07-14T05:41:26.653Z,21.60
2018-07-14T05:41:59.691Z,22.90
2018-07-14T05:42:32.732Z,23.60
2018-07-14T05:43:05.765Z,22.10
2018-07-14T05:43:38.825Z,21.50
2018-07-14T05:44:11.919Z,21.50
2018-07-14T05:44:44.930Z,19.90
2018-07-14T05:45:17.940Z,17.80
2018-07-14T05:45:50.990Z,17.50
2018-07-14T05:46:24.013Z,18.40
2018-07-14T05:46:57.013Z,19.90
2018-07-14T05:47:30.013Z,19.10
2018-07-14T05:48:03.041Z,17.00
2018-07-14T05:48:36.066Z,17.70
2018-07-14T05:49:09.093Z,17.40
2018-07-14T05:49:42.141Z,16.10
2018-07-14T05:50:15.160Z,17.60
2018-07-14T05:50:48.183Z,17.70
2018-07-14T05:51:21.191Z,16.80
2018-07-14T05:51:54.222Z,14.60
2018-07-14T05:52:27.279Z,14.30
2018-07-14T05:53:00.390Z,14.90
2018-07-14T05:53:33.439Z,14.20
2018-07-14T05:54:06.475Z,12.90
2018-07-14T05:54:39.538Z,12.30
2018-07-14T05:55:12.603Z,10.50
2018-07-14T05:55:45.613Z,10.40
2018-07-14T05:56:18.652Z,9.20
2018-07-14T05:56:51.667Z,5.00
2018-07-14T05:57:24.704Z,5.00
2018-07-14T05:57:57.794Z,5.00
2018-07-14T05:58:30.832Z,5.00
2018-07-14T05:59:03.866Z,5.00
2018-07-14T05:59:36.910Z,5.00
2018-07-14T06:00:10.009Z,5.00
2018-07-14T06:00:43.044Z,5.00
2018-07-14T06:01:16.114Z,5.00
2018-07-14T06:01:49.140Z,5.00
2018-07-14T06:02:22.202Z,5.00
2018-07-14T06:02:55.251Z,5.00
2018-07-14T06:03:28.305Z,5.00
2018-07-14T06:04:01.367Z,5.00
2018-07-14T06:04:34.406Z,5.00
2018-07-14T06:05:07.475Z,5.00
2018-07-14T06:05:40.526Z,5.00
2018-07-14T06:06:13.604Z,5.00
2018-07-14T06:06:46.629Z,5.00
2018-07-14T06:07:19.642Z,5.00
2018-07-14T06:07:52.996Z,5.00
2018-07-14T06:08:25.969Z,5.00
2018-07-14T06:08:58.988Z,5.00
2018-07-14T06:09:32.034Z,5.00
2018-07-14T06:10:05.120Z,5.00
2018-07-14T06:10:38.156Z,5.00
2018-07-14T06:11:11.164Z,5.00
2018-07-14T06:11:44.165Z,5.00
2018-07-14T06:12:17.212Z,5.00
2018-07-14T06:12:50.280Z,5.00
2018-07-14T06:13:23.400Z,5.00
2018-07-14T06:13:56.566Z,5.00
2018-07-14T06:14:29.595Z,5.00
2018-07-14T06:15:02.813Z,5.00
2018-07-14T06:15:35.870Z,5.00
2018-07-14T06:16:08.969Z,5.00
2018-07-14T06:16:41.993Z,5.00
2018-07-14T06:17:15.048Z,5.00
2018-07-14T06:17:48.109Z,5.00
2018-07-14T06:18:21.108Z,5.00
2018-07-14T06:18:54.108Z,5.00
2018-07-14T06:19:27.199Z,5.00
2018-07-14T06:20:00.185Z,5.00
2018-07-14T06:20:33.272Z,5.00
2018-07-14T06:21:06.314Z,5.00
2018-07-14T06:21:39.346Z,5.00
2018-07-14T06:22:12.390Z,5.00
2018-07-14T06:22:45.432Z,5.00
2018-07-14T06:23:18.456Z,5.00
2018-07-14T06:23:51.502Z,5.00
2018-07-14T06:24:24.578Z,5.00
2018-07-14T06:24:57.616Z,5.00
2018-07-14T06:25:30.691Z,5.00
2018-07-14T06:26:04.111Z,5.00
2018-07-14T06:26:37.159Z,5.00
2018-07-14T06:27:10.206Z,5.00
2018-07-14T06:27:43.298Z,5.00
2018-07-14T06:28:16.346Z,5.00
2018-07-14T06:28:49.391Z,5.00
2018-07-14T06:29:22.478Z,5.00
2018-07-14T06:29:55.514Z,5.00
2018-07-14T06:30:28.524Z,5.00
2018-07-14T06:31:01.562Z,5.00
2018-07-14T06:31:34.559Z,5.00
2018-07-14T06:32:07.725Z,5.00
2018-07-14T06:32:40.651Z,5.00
2018-07-14T06:33:13.693Z,5.00
2018-07-14T06:33:46.930Z,5.00
2018-07-14T06:34:19.964Z,5.00
2018-07-14T06:34:53.013Z,5.00
2018-07-14T06:35:26.072Z,5.00
2018-07-14T06:35:59.182Z,5.00
2018-07-14T06:36:32.247Z,5.00
2018-07-14T06:37:05.367Z,5.00
2018-07-14T06:37:38.434Z,5.00
2018-07-14T06:38:11.489Z,5.00
2018-07-14T06:38:44.572Z,5.00
2018-07-14T06:39:17.602Z,5.00
2018-07-14T06:39:50.650Z,5.00
2018-07-14T06:40:23.727Z,5.00
2018-07-14T06:40:56.809Z,5.00
2018-07-14T06:41:29.837Z,5.00
2018-07-14T06:42:02.915Z,5.00
2018-07-14T06:42:36.001Z,5.00
2018-07-14T06:43:09.074Z,5.00
2018-07-14T06:43:42.086Z,5.00
2018-07-14T06:44:15.134Z,5.00
2018-07-14T06:44:48.208Z,5.00
2018-07-14T06:45:21.193Z,5.00
2018-07-14T06:45:54.213Z,5.00
2018-07-14T06:46:27.306Z,5.00
2018-07-14T06:47:00.380Z,5.00
2018-07-14T06:47:33.602Z,5.00
2018-07-14T06:48:06.616Z,5.00
2018-07-14T06:48:39.670Z,5.00
2018-07-14T06:49:12.723Z,5.00
2018-07-14T06:49:45.782Z,5.00
2018-07-14T06:50:18.816Z,5.00
2018-07-14T06:50:51.856Z,5.00
2018-07-14T06:51:24.967Z,5.00
2018-07-14T06:51:58.005Z,5.00
2018-07-14T06:52:31.071Z,5.00
2018-07-14T06:53:04.134Z,5.00
2018-07-14T06:53:37.182Z,5.00
2018-07-14T06:54:10.267Z,5.00
2018-07-14T06:54:43.309Z,5.00
2018-07-14T06:55:16.460Z,5.00
2018-07-14T06:55:49.492Z,5.00
2018-07-14T06:56:22.558Z,5.00
2018-07-14T06:56:55.593Z,5.00
2018-07-14T06:57:28.635Z,5.00
2018-07-14T06:58:01.724Z,5.00
2018-07-14T06:58:34.768Z,5.00
2018-07-14T06:59:07.852Z,5.00
2018-07-14T06:59:40.939Z,5.00
2018-07-14T07:00:13.981Z,5.00
2018-07-14T07:00:47.056Z,5.00
2018-07-14T07:01:20.143Z,5.00
2018-07-14T07:01:53.147Z,5.00
2018-07-14T07:02:26.184Z,5.00
2018-07-14T07:02:59.202Z,5.00
2018-07-14T07:03:32.213Z,5.00
2018-07-14T07:04:05.331Z,5.00
2018-07-14T07:04:38.467Z,5.00
2018-07-14T07:05:11.545Z,5.00
2018-07-14T07:05:44.610Z,5.00
2018-07-14T07:06:17.755Z,5.00
2018-07-14T07:06:50.777Z,5.00
2018-07-14T07:07:23.826Z,5.00
2018-07-14T07:07:56.976Z,5.00